sensor_id;sensor_type;location;lat;lon;timestamp;P1;durP1;ratioP1;P2;durP2;ratioP2
22250;SDS011;59348;52.158;5.588;2022-12-24T00:01:55;26.27;;;4.75;;
22250;SDS011;59348;52.158;5.588;2022-12-24T00:04:23;33.38;;;4.97;;
22250;SDS011;59348;52.158;5.588;2022-12-24T00:06:51;39.35;;;4.57;;
22250;SDS011;59348;52.158;5.588;2022-12-24T00:09:19;31.20;;;4.72;;
22250;SDS011;59348;52.158;5.588;2022-12-24T00:11:46;32.65;;;5.80;;
22250;SDS011;59348;52.158;5.588;2022-12-24T00:14:13;27.17;;;5.18;;
22250;SDS011;59348;52.158;5.588;2022-12-24T00:16:41;34.55;;;4.80;;
22250;SDS011;59348;52.158;5.588;2022-12-24T00:19:08;29.13;;;5.28;;
22250;SDS011;59348;52.158;5.588;2022-12-24T00:21:35;30.13;;;5.45;;
22250;SDS011;59348;52.158;5.588;2022-12-24T00:24:04;37.53;;;5.45;;
22250;SDS011;59348;52.158;5.588;2022-12-24T00:26:31;32.47;;;5.15;;
22250;SDS011;59348;52.158;5.588;2022-12-24T00:28:59;33.85;;;6.00;;
22250;SDS011;59348;52.158;5.588;2022-12-24T00:31:27;37.30;;;5.45;;
22250;SDS011;59348;52.158;5.588;2022-12-24T00:33:55;39.45;;;5.97;;
22250;SDS011;59348;52.158;5.588;2022-12-24T00:36:23;32.45;;;5.72;;
22250;SDS011;59348;52.158;5.588;2022-12-24T00:38:50;29.10;;;5.78;;
22250;SDS011;59348;52.158;5.588;2022-12-24T00:41:19;39.25;;;6.05;;
22250;SDS011;59348;52.158;5.588;2022-12-24T00:43:50;34.42;;;5.47;;
22250;SDS011;59348;52.158;5.588;2022-12-24T00:46:17;28.85;;;5.10;;
22250;SDS011;59348;52.158;5.588;2022-12-24T00:48:44;32.75;;;5.57;;
22250;SDS011;59348;52.158;5.588;2022-12-24T00:51:12;39.65;;;5.68;;
22250;SDS011;59348;52.158;5.588;2022-12-24T00:53:39;39.45;;;5.90;;
22250;SDS011;59348;52.158;5.588;2022-12-24T00:56:06;32.70;;;5.47;;
22250;SDS011;59348;52.158;5.588;2022-12-24T00:58:35;36.45;;;5.78;;
22250;SDS011;59348;52.158;5.588;2022-12-24T01:01:03;40.88;;;5.75;;
22250;SDS011;59348;52.158;5.588;2022-12-24T01:03:30;37.17;;;5.85;;
22250;SDS011;59348;52.158;5.588;2022-12-24T01:06:00;28.10;;;5.55;;
22250;SDS011;59348;52.158;5.588;2022-12-24T01:08:26;34.67;;;5.43;;
22250;SDS011;59348;52.158;5.588;2022-12-24T01:10:54;30.30;;;5.63;;
22250;SDS011;59348;52.158;5.588;2022-12-24T01:13:21;33.50;;;5.38;;
22250;SDS011;59348;52.158;5.588;2022-12-24T01:15:51;35.63;;;5.78;;
22250;SDS011;59348;52.158;5.588;2022-12-24T01:18:18;34.85;;;5.50;;
22250;SDS011;59348;52.158;5.588;2022-12-24T01:20:50;36.25;;;6.35;;
22250;SDS011;59348;52.158;5.588;2022-12-24T01:23:20;34.50;;;5.18;;
22250;SDS011;59348;52.158;5.588;2022-12-24T01:25:48;35.90;;;5.70;;
22250;SDS011;59348;52.158;5.588;2022-12-24T01:28:15;38.58;;;5.97;;
22250;SDS011;59348;52.158;5.588;2022-12-24T01:30:42;37.38;;;5.78;;
22250;SDS011;59348;52.158;5.588;2022-12-24T01:33:11;35.60;;;6.15;;
22250;SDS011;59348;52.158;5.588;2022-12-24T01:35:38;32.40;;;5.65;;
22250;SDS011;59348;52.158;5.588;2022-12-24T01:38:06;36.95;;;6.30;;
22250;SDS011;59348;52.158;5.588;2022-12-24T01:40:33;36.70;;;6.45;;
22250;SDS011;59348;52.158;5.588;2022-12-24T01:43:15;40.45;;;6.47;;
22250;SDS011;59348;52.158;5.588;2022-12-24T01:45:52;47.85;;;6.72;;
22250;SDS011;59348;52.158;5.588;2022-12-24T01:48:23;49.58;;;6.78;;
22250;SDS011;59348;52.158;5.588;2022-12-24T01:50:52;50.63;;;6.90;;
22250;SDS011;59348;52.158;5.588;2022-12-24T01:53:21;44.33;;;6.38;;
22250;SDS011;59348;52.158;5.588;2022-12-24T01:55:48;49.47;;;6.78;;
22250;SDS011;59348;52.158;5.588;2022-12-24T01:58:17;46.65;;;6.45;;
22250;SDS011;59348;52.158;5.588;2022-12-24T02:00:45;36.55;;;5.82;;
22250;SDS011;59348;52.158;5.588;2022-12-24T02:03:13;35.60;;;6.07;;
22250;SDS011;59348;52.158;5.588;2022-12-24T02:05:43;44.83;;;6.90;;
22250;SDS011;59348;52.158;5.588;2022-12-24T02:08:12;38.92;;;6.05;;
22250;SDS011;59348;52.158;5.588;2022-12-24T02:10:40;48.70;;;6.80;;
22250;SDS011;59348;52.158;5.588;2022-12-24T02:13:07;41.88;;;6.25;;
22250;SDS011;59348;52.158;5.588;2022-12-24T02:15:38;47.75;;;6.60;;
22250;SDS011;59348;52.158;5.588;2022-12-24T02:18:11;45.38;;;6.45;;
22250;SDS011;59348;52.158;5.588;2022-12-24T02:20:51;41.95;;;6.47;;
22250;SDS011;59348;52.158;5.588;2022-12-24T02:23:27;50.45;;;6.85;;
22250;SDS011;59348;52.158;5.588;2022-12-24T02:26:03;40.05;;;6.55;;
22250;SDS011;59348;52.158;5.588;2022-12-24T02:28:38;42.42;;;6.85;;
22250;SDS011;59348;52.158;5.588;2022-12-24T02:31:12;47.78;;;6.57;;
22250;SDS011;59348;52.158;5.588;2022-12-24T02:33:42;57.95;;;7.28;;
22250;SDS011;59348;52.158;5.588;2022-12-24T02:36:12;43.50;;;6.15;;
22250;SDS011;59348;52.158;5.588;2022-12-24T02:38:45;53.47;;;7.25;;
22250;SDS011;59348;52.158;5.588;2022-12-24T02:41:15;46.42;;;6.75;;
22250;SDS011;59348;52.158;5.588;2022-12-24T02:43:43;44.08;;;7.13;;
22250;SDS011;59348;52.158;5.588;2022-12-24T02:46:15;46.20;;;6.95;;
22250;SDS011;59348;52.158;5.588;2022-12-24T02:48:44;40.85;;;6.60;;
22250;SDS011;59348;52.158;5.588;2022-12-24T02:51:13;47.50;;;6.35;;
22250;SDS011;59348;52.158;5.588;2022-12-24T02:53:41;42.08;;;6.57;;
22250;SDS011;59348;52.158;5.588;2022-12-24T02:56:16;49.28;;;6.45;;
22250;SDS011;59348;52.158;5.588;2022-12-24T02:58:49;39.47;;;6.32;;
22250;SDS011;59348;52.158;5.588;2022-12-24T03:01:21;46.40;;;6.63;;
22250;SDS011;59348;52.158;5.588;2022-12-24T03:03:56;50.65;;;6.97;;
22250;SDS011;59348;52.158;5.588;2022-12-24T03:06:31;43.15;;;6.47;;
22250;SDS011;59348;52.158;5.588;2022-12-24T03:08:59;45.00;;;6.75;;
22250;SDS011;59348;52.158;5.588;2022-12-24T03:11:28;46.55;;;6.30;;
22250;SDS011;59348;52.158;5.588;2022-12-24T03:13:55;41.15;;;6.00;;
22250;SDS011;59348;52.158;5.588;2022-12-24T03:16:27;38.30;;;5.88;;
22250;SDS011;59348;52.158;5.588;2022-12-24T03:18:54;49.53;;;6.32;;
22250;SDS011;59348;52.158;5.588;2022-12-24T03:21:23;42.55;;;5.97;;
22250;SDS011;59348;52.158;5.588;2022-12-24T03:23:52;45.63;;;6.22;;
22250;SDS011;59348;52.158;5.588;2022-12-24T03:26:19;46.33;;;5.70;;
22250;SDS011;59348;52.158;5.588;2022-12-24T03:28:47;36.55;;;5.88;;
22250;SDS011;59348;52.158;5.588;2022-12-24T03:31:15;35.58;;;5.72;;
22250;SDS011;59348;52.158;5.588;2022-12-24T03:33:45;38.08;;;5.68;;
22250;SDS011;59348;52.158;5.588;2022-12-24T03:36:12;38.75;;;5.75;;
22250;SDS011;59348;52.158;5.588;2022-12-24T03:38:40;41.92;;;5.65;;
22250;SDS011;59348;52.158;5.588;2022-12-24T03:41:07;39.28;;;5.65;;
22250;SDS011;59348;52.158;5.588;2022-12-24T03:43:35;38.33;;;5.57;;
22250;SDS011;59348;52.158;5.588;2022-12-24T03:46:03;49.33;;;6.25;;
22250;SDS011;59348;52.158;5.588;2022-12-24T03:48:31;49.53;;;6.15;;
22250;SDS011;59348;52.158;5.588;2022-12-24T03:51:01;43.83;;;5.78;;
22250;SDS011;59348;52.158;5.588;2022-12-24T03:53:29;47.72;;;6.70;;
22250;SDS011;59348;52.158;5.588;2022-12-24T03:55:56;45.03;;;5.78;;
22250;SDS011;59348;52.158;5.588;2022-12-24T03:58:24;42.35;;;6.25;;
22250;SDS011;59348;52.158;5.588;2022-12-24T04:00:52;46.10;;;6.55;;
22250;SDS011;59348;52.158;5.588;2022-12-24T04:03:19;42.47;;;6.00;;
22250;SDS011;59348;52.158;5.588;2022-12-24T04:05:47;43.28;;;6.90;;
22250;SDS011;59348;52.158;5.588;2022-12-24T04:08:15;54.88;;;7.03;;
22250;SDS011;59348;52.158;5.588;2022-12-24T04:10:42;52.63;;;6.47;;
22250;SDS011;59348;52.158;5.588;2022-12-24T04:13:10;51.17;;;6.72;;
22250;SDS011;59348;52.158;5.588;2022-12-24T04:15:38;53.15;;;6.85;;
22250;SDS011;59348;52.158;5.588;2022-12-24T04:18:05;52.05;;;6.57;;
22250;SDS011;59348;52.158;5.588;2022-12-24T04:20:33;58.08;;;7.40;;
22250;SDS011;59348;52.158;5.588;2022-12-24T04:23:00;48.63;;;6.97;;
22250;SDS011;59348;52.158;5.588;2022-12-24T04:25:29;48.42;;;7.00;;
22250;SDS011;59348;52.158;5.588;2022-12-24T04:27:56;47.60;;;6.63;;
22250;SDS011;59348;52.158;5.588;2022-12-24T04:30:23;51.72;;;7.35;;
22250;SDS011;59348;52.158;5.588;2022-12-24T04:32:51;52.60;;;6.72;;
22250;SDS011;59348;52.158;5.588;2022-12-24T04:35:18;46.47;;;7.28;;
22250;SDS011;59348;52.158;5.588;2022-12-24T04:37:46;51.00;;;7.60;;
22250;SDS011;59348;52.158;5.588;2022-12-24T04:40:13;53.35;;;7.80;;
22250;SDS011;59348;52.158;5.588;2022-12-24T04:42:42;55.92;;;7.47;;
22250;SDS011;59348;52.158;5.588;2022-12-24T04:45:10;67.53;;;8.13;;
22250;SDS011;59348;52.158;5.588;2022-12-24T04:47:37;48.65;;;7.70;;
22250;SDS011;59348;52.158;5.588;2022-12-24T04:50:04;50.47;;;8.05;;
22250;SDS011;59348;52.158;5.588;2022-12-24T04:52:32;49.72;;;8.20;;
22250;SDS011;59348;52.158;5.588;2022-12-24T04:55:00;53.45;;;7.47;;
22250;SDS011;59348;52.158;5.588;2022-12-24T04:57:29;55.17;;;8.63;;
22250;SDS011;59348;52.158;5.588;2022-12-24T04:59:59;50.60;;;7.60;;
22250;SDS011;59348;52.158;5.588;2022-12-24T05:02:26;61.42;;;8.57;;
22250;SDS011;59348;52.158;5.588;2022-12-24T05:04:53;51.13;;;8.00;;
22250;SDS011;59348;52.158;5.588;2022-12-24T05:07:20;48.05;;;7.15;;
22250;SDS011;59348;52.158;5.588;2022-12-24T05:09:48;50.22;;;7.85;;
22250;SDS011;59348;52.158;5.588;2022-12-24T05:12:16;40.83;;;7.15;;
22250;SDS011;59348;52.158;5.588;2022-12-24T05:14:44;45.47;;;7.43;;
22250;SDS011;59348;52.158;5.588;2022-12-24T05:17:13;52.28;;;8.55;;
22250;SDS011;59348;52.158;5.588;2022-12-24T05:19:40;41.63;;;7.32;;
22250;SDS011;59348;52.158;5.588;2022-12-24T05:22:08;52.88;;;7.90;;
22250;SDS011;59348;52.158;5.588;2022-12-24T05:24:49;43.65;;;7.35;;
22250;SDS011;59348;52.158;5.588;2022-12-24T05:27:30;40.35;;;7.47;;
22250;SDS011;59348;52.158;5.588;2022-12-24T05:29:57;48.38;;;7.40;;
22250;SDS011;59348;52.158;5.588;2022-12-24T05:32:26;48.00;;;7.18;;
22250;SDS011;59348;52.158;5.588;2022-12-24T05:34:54;47.28;;;7.35;;
22250;SDS011;59348;52.158;5.588;2022-12-24T05:37:21;46.97;;;7.13;;
22250;SDS011;59348;52.158;5.588;2022-12-24T05:39:49;46.55;;;7.03;;
22250;SDS011;59348;52.158;5.588;2022-12-24T05:42:16;50.50;;;7.22;;
22250;SDS011;59348;52.158;5.588;2022-12-24T05:44:44;49.95;;;7.10;;
22250;SDS011;59348;52.158;5.588;2022-12-24T05:47:11;42.72;;;6.75;;
22250;SDS011;59348;52.158;5.588;2022-12-24T05:49:39;42.08;;;6.65;;
22250;SDS011;59348;52.158;5.588;2022-12-24T05:52:07;47.95;;;6.90;;
22250;SDS011;59348;52.158;5.588;2022-12-24T05:54:34;47.63;;;7.25;;
22250;SDS011;59348;52.158;5.588;2022-12-24T05:57:01;46.67;;;7.68;;
22250;SDS011;59348;52.158;5.588;2022-12-24T05:59:29;49.10;;;6.93;;
22250;SDS011;59348;52.158;5.588;2022-12-24T06:01:56;49.05;;;7.50;;
22250;SDS011;59348;52.158;5.588;2022-12-24T06:04:23;50.15;;;7.38;;
22250;SDS011;59348;52.158;5.588;2022-12-24T06:06:52;42.78;;;7.03;;
22250;SDS011;59348;52.158;5.588;2022-12-24T06:09:19;49.45;;;7.55;;
22250;SDS011;59348;52.158;5.588;2022-12-24T06:11:46;47.53;;;7.53;;
22250;SDS011;59348;52.158;5.588;2022-12-24T06:14:14;54.38;;;7.72;;
22250;SDS011;59348;52.158;5.588;2022-12-24T06:16:41;47.20;;;7.78;;
22250;SDS011;59348;52.158;5.588;2022-12-24T06:19:09;45.42;;;7.63;;
22250;SDS011;59348;52.158;5.588;2022-12-24T06:21:36;48.03;;;7.93;;
22250;SDS011;59348;52.158;5.588;2022-12-24T06:24:05;53.60;;;8.00;;
22250;SDS011;59348;52.158;5.588;2022-12-24T06:26:32;45.85;;;7.10;;
22250;SDS011;59348;52.158;5.588;2022-12-24T06:29:00;43.75;;;7.60;;
22250;SDS011;59348;52.158;5.588;2022-12-24T06:31:27;57.63;;;7.65;;
22250;SDS011;59348;52.158;5.588;2022-12-24T06:33:54;37.97;;;6.75;;
22250;SDS011;59348;52.158;5.588;2022-12-24T06:36:22;55.85;;;7.75;;
22250;SDS011;59348;52.158;5.588;2022-12-24T06:38:51;53.72;;;7.63;;
22250;SDS011;59348;52.158;5.588;2022-12-24T06:41:20;57.05;;;8.30;;
22250;SDS011;59348;52.158;5.588;2022-12-24T06:43:48;59.28;;;8.75;;
22250;SDS011;59348;52.158;5.588;2022-12-24T06:46:16;53.22;;;8.18;;
22250;SDS011;59348;52.158;5.588;2022-12-24T06:48:44;67.90;;;8.55;;
22250;SDS011;59348;52.158;5.588;2022-12-24T06:51:11;60.15;;;8.85;;
22250;SDS011;59348;52.158;5.588;2022-12-24T06:53:39;63.03;;;8.57;;
22250;SDS011;59348;52.158;5.588;2022-12-24T06:56:07;62.85;;;9.52;;
22250;SDS011;59348;52.158;5.588;2022-12-24T06:58:36;65.50;;;8.70;;
22250;SDS011;59348;52.158;5.588;2022-12-24T07:01:05;59.05;;;8.50;;
22250;SDS011;59348;52.158;5.588;2022-12-24T07:03:32;65.95;;;9.55;;
22250;SDS011;59348;52.158;5.588;2022-12-24T07:06:00;66.72;;;9.05;;
22250;SDS011;59348;52.158;5.588;2022-12-24T07:08:27;53.33;;;9.20;;
22250;SDS011;59348;52.158;5.588;2022-12-24T07:10:57;67.05;;;9.30;;
22250;SDS011;59348;52.158;5.588;2022-12-24T07:13:25;65.13;;;9.68;;
22250;SDS011;59348;52.158;5.588;2022-12-24T07:15:57;67.72;;;9.98;;
22250;SDS011;59348;52.158;5.588;2022-12-24T07:18:24;60.75;;;8.55;;
22250;SDS011;59348;52.158;5.588;2022-12-24T07:20:51;73.93;;;10.77;;
22250;SDS011;59348;52.158;5.588;2022-12-24T07:23:19;64.03;;;9.30;;
22250;SDS011;59348;52.158;5.588;2022-12-24T07:25:46;59.80;;;8.77;;
22250;SDS011;59348;52.158;5.588;2022-12-24T07:28:13;68.38;;;8.60;;
22250;SDS011;59348;52.158;5.588;2022-12-24T07:30:41;57.60;;;8.85;;
22250;SDS011;59348;52.158;5.588;2022-12-24T07:33:09;64.75;;;9.27;;
22250;SDS011;59348;52.158;5.588;2022-12-24T07:35:37;58.92;;;8.13;;
22250;SDS011;59348;52.158;5.588;2022-12-24T07:38:04;62.72;;;8.82;;
22250;SDS011;59348;52.158;5.588;2022-12-24T07:40:32;58.28;;;7.97;;
22250;SDS011;59348;52.158;5.588;2022-12-24T07:43:00;53.22;;;8.05;;
22250;SDS011;59348;52.158;5.588;2022-12-24T07:45:27;62.38;;;8.60;;
22250;SDS011;59348;52.158;5.588;2022-12-24T07:47:54;54.70;;;8.90;;
22250;SDS011;59348;52.158;5.588;2022-12-24T07:50:23;59.42;;;8.27;;
22250;SDS011;59348;52.158;5.588;2022-12-24T07:52:51;55.90;;;8.38;;
22250;SDS011;59348;52.158;5.588;2022-12-24T07:55:19;54.83;;;9.23;;
22250;SDS011;59348;52.158;5.588;2022-12-24T07:57:46;52.60;;;8.55;;
22250;SDS011;59348;52.158;5.588;2022-12-24T08:00:14;59.35;;;8.77;;
22250;SDS011;59348;52.158;5.588;2022-12-24T08:02:41;60.90;;;8.95;;
22250;SDS011;59348;52.158;5.588;2022-12-24T08:05:09;58.40;;;8.75;;
22250;SDS011;59348;52.158;5.588;2022-12-24T08:07:37;55.35;;;8.20;;
22250;SDS011;59348;52.158;5.588;2022-12-24T08:10:05;57.35;;;7.82;;
22250;SDS011;59348;52.158;5.588;2022-12-24T08:12:32;59.80;;;8.60;;
22250;SDS011;59348;52.158;5.588;2022-12-24T08:15:00;51.45;;;7.80;;
22250;SDS011;59348;52.158;5.588;2022-12-24T08:17:27;52.70;;;7.75;;
22250;SDS011;59348;52.158;5.588;2022-12-24T08:19:55;62.75;;;8.95;;
22250;SDS011;59348;52.158;5.588;2022-12-24T08:22:22;58.72;;;7.93;;
22250;SDS011;59348;52.158;5.588;2022-12-24T08:24:51;63.83;;;8.57;;
22250;SDS011;59348;52.158;5.588;2022-12-24T08:27:19;56.75;;;8.75;;
22250;SDS011;59348;52.158;5.588;2022-12-24T08:29:46;55.38;;;9.45;;
22250;SDS011;59348;52.158;5.588;2022-12-24T08:32:14;52.83;;;8.00;;
22250;SDS011;59348;52.158;5.588;2022-12-24T08:34:41;55.50;;;7.70;;
22250;SDS011;59348;52.158;5.588;2022-12-24T08:37:09;57.95;;;7.90;;
22250;SDS011;59348;52.158;5.588;2022-12-24T08:39:36;46.55;;;7.50;;
22250;SDS011;59348;52.158;5.588;2022-12-24T08:42:05;63.22;;;8.10;;
22250;SDS011;59348;52.158;5.588;2022-12-24T08:44:32;52.00;;;8.18;;
22250;SDS011;59348;52.158;5.588;2022-12-24T08:46:59;51.20;;;7.82;;
22250;SDS011;59348;52.158;5.588;2022-12-24T08:49:27;64.78;;;8.30;;
22250;SDS011;59348;52.158;5.588;2022-12-24T08:51:54;50.35;;;7.65;;
22250;SDS011;59348;52.158;5.588;2022-12-24T08:54:22;62.53;;;8.15;;
22250;SDS011;59348;52.158;5.588;2022-12-24T08:56:49;48.65;;;8.27;;
22250;SDS011;59348;52.158;5.588;2022-12-24T08:59:18;52.97;;;7.88;;
22250;SDS011;59348;52.158;5.588;2022-12-24T09:01:45;49.22;;;7.88;;
22250;SDS011;59348;52.158;5.588;2022-12-24T09:04:12;57.22;;;8.10;;
22250;SDS011;59348;52.158;5.588;2022-12-24T09:06:41;50.60;;;7.88;;
22250;SDS011;59348;52.158;5.588;2022-12-24T09:09:08;52.53;;;8.25;;
22250;SDS011;59348;52.158;5.588;2022-12-24T09:11:36;54.83;;;8.13;;
22250;SDS011;59348;52.158;5.588;2022-12-24T09:14:03;48.55;;;7.82;;
22250;SDS011;59348;52.158;5.588;2022-12-24T09:16:31;48.72;;;7.93;;
22250;SDS011;59348;52.158;5.588;2022-12-24T09:18:59;61.65;;;8.85;;
22250;SDS011;59348;52.158;5.588;2022-12-24T09:21:26;44.75;;;7.95;;
22250;SDS011;59348;52.158;5.588;2022-12-24T09:23:53;47.75;;;7.65;;
22250;SDS011;59348;52.158;5.588;2022-12-24T09:26:22;41.08;;;7.28;;
22250;SDS011;59348;52.158;5.588;2022-12-24T09:28:49;49.53;;;8.07;;
22250;SDS011;59348;52.158;5.588;2022-12-24T09:31:17;51.38;;;8.45;;
22250;SDS011;59348;52.158;5.588;2022-12-24T09:33:47;49.17;;;8.27;;
22250;SDS011;59348;52.158;5.588;2022-12-24T09:36:15;46.45;;;7.45;;
22250;SDS011;59348;52.158;5.588;2022-12-24T09:38:42;47.50;;;8.32;;
22250;SDS011;59348;52.158;5.588;2022-12-24T09:41:11;49.13;;;8.65;;
22250;SDS011;59348;52.158;5.588;2022-12-24T09:43:38;53.90;;;7.82;;
22250;SDS011;59348;52.158;5.588;2022-12-24T09:46:07;50.90;;;7.80;;
22250;SDS011;59348;52.158;5.588;2022-12-24T09:48:36;53.45;;;7.97;;
22250;SDS011;59348;52.158;5.588;2022-12-24T09:51:07;44.88;;;7.30;;
22250;SDS011;59348;52.158;5.588;2022-12-24T09:53:36;38.85;;;6.85;;
22250;SDS011;59348;52.158;5.588;2022-12-24T09:56:08;35.03;;;7.18;;
22250;SDS011;59348;52.158;5.588;2022-12-24T09:58:38;45.40;;;7.10;;
22250;SDS011;59348;52.158;5.588;2022-12-24T10:01:08;40.33;;;7.13;;
22250;SDS011;59348;52.158;5.588;2022-12-24T10:03:36;43.17;;;7.68;;
22250;SDS011;59348;52.158;5.588;2022-12-24T10:06:05;39.85;;;6.75;;
22250;SDS011;59348;52.158;5.588;2022-12-24T10:08:37;44.72;;;7.20;;
22250;SDS011;59348;52.158;5.588;2022-12-24T10:11:10;42.90;;;7.57;;
22250;SDS011;59348;52.158;5.588;2022-12-24T10:13:43;44.55;;;6.90;;
22250;SDS011;59348;52.158;5.588;2022-12-24T10:16:17;44.13;;;7.15;;
22250;SDS011;59348;52.158;5.588;2022-12-24T10:18:49;35.72;;;6.15;;
22250;SDS011;59348;52.158;5.588;2022-12-24T10:21:19;37.75;;;6.07;;
22250;SDS011;59348;52.158;5.588;2022-12-24T10:23:52;35.88;;;6.38;;
22250;SDS011;59348;52.158;5.588;2022-12-24T10:26:22;42.47;;;7.40;;
22250;SDS011;59348;52.158;5.588;2022-12-24T10:28:51;43.92;;;7.22;;
22250;SDS011;59348;52.158;5.588;2022-12-24T10:31:22;37.92;;;7.55;;
22250;SDS011;59348;52.158;5.588;2022-12-24T10:33:52;36.33;;;7.35;;
22250;SDS011;59348;52.158;5.588;2022-12-24T10:36:22;35.50;;;6.93;;
22250;SDS011;59348;52.158;5.588;2022-12-24T10:38:53;37.67;;;6.93;;
22250;SDS011;59348;52.158;5.588;2022-12-24T10:41:20;40.92;;;6.95;;
22250;SDS011;59348;52.158;5.588;2022-12-24T10:43:48;38.75;;;7.30;;
22250;SDS011;59348;52.158;5.588;2022-12-24T10:46:17;37.28;;;6.55;;
22250;SDS011;59348;52.158;5.588;2022-12-24T10:48:47;40.95;;;6.57;;
22250;SDS011;59348;52.158;5.588;2022-12-24T10:51:17;36.83;;;7.55;;
22250;SDS011;59348;52.158;5.588;2022-12-24T10:53:47;44.75;;;7.00;;
22250;SDS011;59348;52.158;5.588;2022-12-24T10:56:16;38.78;;;6.43;;
22250;SDS011;59348;52.158;5.588;2022-12-24T10:58:44;40.03;;;6.88;;
22250;SDS011;59348;52.158;5.588;2022-12-24T11:01:12;41.85;;;6.78;;
22250;SDS011;59348;52.158;5.588;2022-12-24T11:03:40;40.40;;;7.00;;
22250;SDS011;59348;52.158;5.588;2022-12-24T11:06:08;44.00;;;7.05;;
22250;SDS011;59348;52.158;5.588;2022-12-24T11:08:36;41.25;;;6.57;;
22250;SDS011;59348;52.158;5.588;2022-12-24T11:11:05;37.60;;;6.82;;
22250;SDS011;59348;52.158;5.588;2022-12-24T11:13:36;38.45;;;6.55;;
22250;SDS011;59348;52.158;5.588;2022-12-24T11:16:04;44.72;;;7.00;;
22250;SDS011;59348;52.158;5.588;2022-12-24T11:18:33;39.35;;;6.63;;
22250;SDS011;59348;52.158;5.588;2022-12-24T11:21:02;42.22;;;7.22;;
22250;SDS011;59348;52.158;5.588;2022-12-24T11:23:30;44.28;;;6.90;;
22250;SDS011;59348;52.158;5.588;2022-12-24T11:25:58;40.33;;;6.72;;
22250;SDS011;59348;52.158;5.588;2022-12-24T11:28:26;39.00;;;6.90;;
22250;SDS011;59348;52.158;5.588;2022-12-24T11:30:56;34.85;;;6.07;;
22250;SDS011;59348;52.158;5.588;2022-12-24T11:33:24;36.30;;;6.55;;
22250;SDS011;59348;52.158;5.588;2022-12-24T11:35:52;33.88;;;5.55;;
22250;SDS011;59348;52.158;5.588;2022-12-24T11:38:21;39.70;;;6.40;;
22250;SDS011;59348;52.158;5.588;2022-12-24T11:40:50;38.30;;;6.40;;
22250;SDS011;59348;52.158;5.588;2022-12-24T11:43:23;33.63;;;6.05;;
22250;SDS011;59348;52.158;5.588;2022-12-24T11:46:12;37.10;;;6.20;;
22250;SDS011;59348;52.158;5.588;2022-12-24T11:48:39;32.88;;;5.57;;
22250;SDS011;59348;52.158;5.588;2022-12-24T11:51:16;31.10;;;5.63;;
22250;SDS011;59348;52.158;5.588;2022-12-24T11:53:45;35.65;;;6.00;;
22250;SDS011;59348;52.158;5.588;2022-12-24T11:56:16;32.70;;;5.75;;
22250;SDS011;59348;52.158;5.588;2022-12-24T11:58:52;37.50;;;6.05;;
22250;SDS011;59348;52.158;5.588;2022-12-24T12:01:22;36.45;;;5.47;;
22250;SDS011;59348;52.158;5.588;2022-12-24T12:03:51;41.83;;;5.07;;
22250;SDS011;59348;52.158;5.588;2022-12-24T12:06:24;30.98;;;5.13;;
22250;SDS011;59348;52.158;5.588;2022-12-24T12:08:53;27.15;;;4.18;;
22250;SDS011;59348;52.158;5.588;2022-12-24T12:11:21;21.58;;;4.60;;
22250;SDS011;59348;52.158;5.588;2022-12-24T12:13:50;23.50;;;4.40;;
22250;SDS011;59348;52.158;5.588;2022-12-24T12:16:22;32.70;;;4.82;;
22250;SDS011;59348;52.158;5.588;2022-12-24T12:18:52;28.88;;;3.90;;
22250;SDS011;59348;52.158;5.588;2022-12-24T12:21:22;26.65;;;4.40;;
22250;SDS011;59348;52.158;5.588;2022-12-24T12:23:52;24.20;;;4.40;;
22250;SDS011;59348;52.158;5.588;2022-12-24T12:26:23;21.25;;;4.20;;
22250;SDS011;59348;52.158;5.588;2022-12-24T12:28:52;21.48;;;4.30;;
22250;SDS011;59348;52.158;5.588;2022-12-24T12:31:22;19.42;;;4.00;;
22250;SDS011;59348;52.158;5.588;2022-12-24T12:33:53;31.33;;;4.13;;
22250;SDS011;59348;52.158;5.588;2022-12-24T12:36:23;23.95;;;3.97;;
22250;SDS011;59348;52.158;5.588;2022-12-24T12:38:52;20.85;;;3.30;;
22250;SDS011;59348;52.158;5.588;2022-12-24T12:41:24;19.42;;;3.75;;
22250;SDS011;59348;52.158;5.588;2022-12-24T12:43:58;22.85;;;3.65;;
22250;SDS011;59348;52.158;5.588;2022-12-24T12:46:35;23.48;;;4.03;;
22250;SDS011;59348;52.158;5.588;2022-12-24T12:49:09;19.85;;;3.80;;
22250;SDS011;59348;52.158;5.588;2022-12-24T12:51:41;25.77;;;3.70;;
22250;SDS011;59348;52.158;5.588;2022-12-24T12:54:17;26.92;;;4.15;;
22250;SDS011;59348;52.158;5.588;2022-12-24T12:56:47;22.48;;;4.15;;
22250;SDS011;59348;52.158;5.588;2022-12-24T12:59:16;23.63;;;3.83;;
22250;SDS011;59348;52.158;5.588;2022-12-24T13:01:48;24.58;;;3.90;;
22250;SDS011;59348;52.158;5.588;2022-12-24T13:04:25;20.55;;;3.90;;
22250;SDS011;59348;52.158;5.588;2022-12-24T13:07:01;24.38;;;4.47;;
22250;SDS011;59348;52.158;5.588;2022-12-24T13:09:40;23.73;;;4.13;;
22250;SDS011;59348;52.158;5.588;2022-12-24T13:12:15;26.98;;;4.32;;
22250;SDS011;59348;52.158;5.588;2022-12-24T13:14:51;22.88;;;4.50;;
22250;SDS011;59348;52.158;5.588;2022-12-24T13:17:32;29.08;;;4.65;;
22250;SDS011;59348;52.158;5.588;2022-12-24T13:20:07;26.55;;;4.50;;
22250;SDS011;59348;52.158;5.588;2022-12-24T13:22:36;22.15;;;4.30;;
22250;SDS011;59348;52.158;5.588;2022-12-24T13:25:04;22.58;;;4.30;;
22250;SDS011;59348;52.158;5.588;2022-12-24T13:27:31;24.98;;;4.53;;
22250;SDS011;59348;52.158;5.588;2022-12-24T13:30:00;26.20;;;4.90;;
22250;SDS011;59348;52.158;5.588;2022-12-24T13:37:54;24.98;;;4.30;;
22250;SDS011;59348;52.158;5.588;2022-12-24T13:40:42;21.23;;;4.50;;
22250;SDS011;59348;52.158;5.588;2022-12-24T13:43:10;21.92;;;4.53;;
22250;SDS011;59348;52.158;5.588;2022-12-24T13:45:41;23.63;;;4.35;;
22250;SDS011;59348;52.158;5.588;2022-12-24T13:48:16;24.13;;;4.50;;
22250;SDS011;59348;52.158;5.588;2022-12-24T13:50:45;21.88;;;4.28;;
22250;SDS011;59348;52.158;5.588;2022-12-24T13:53:21;28.95;;;4.93;;
22250;SDS011;59348;52.158;5.588;2022-12-24T13:55:51;29.75;;;4.72;;
22250;SDS011;59348;52.158;5.588;2022-12-24T13:58:20;23.83;;;4.35;;
22250;SDS011;59348;52.158;5.588;2022-12-24T14:00:51;20.42;;;4.20;;
22250;SDS011;59348;52.158;5.588;2022-12-24T14:03:22;24.58;;;4.57;;
22250;SDS011;59348;52.158;5.588;2022-12-24T14:05:51;23.92;;;4.75;;
22250;SDS011;59348;52.158;5.588;2022-12-24T14:08:28;27.60;;;4.65;;
22250;SDS011;59348;52.158;5.588;2022-12-24T14:11:01;24.73;;;4.22;;
22250;SDS011;59348;52.158;5.588;2022-12-24T14:16:11;23.77;;;4.45;;
22250;SDS011;59348;52.158;5.588;2022-12-24T14:18:40;33.25;;;4.57;;
22250;SDS011;59348;52.158;5.588;2022-12-24T14:21:13;30.88;;;4.80;;
22250;SDS011;59348;52.158;5.588;2022-12-24T14:23:44;34.05;;;4.80;;
22250;SDS011;59348;52.158;5.588;2022-12-24T14:26:15;27.70;;;5.00;;
22250;SDS011;59348;52.158;5.588;2022-12-24T14:28:44;26.70;;;4.43;;
22250;SDS011;59348;52.158;5.588;2022-12-24T14:31:13;32.47;;;4.82;;
22250;SDS011;59348;52.158;5.588;2022-12-24T14:33:42;32.03;;;5.18;;
22250;SDS011;59348;52.158;5.588;2022-12-24T14:36:09;25.17;;;4.75;;
22250;SDS011;59348;52.158;5.588;2022-12-24T14:38:38;25.92;;;4.85;;
22250;SDS011;59348;52.158;5.588;2022-12-24T14:41:08;24.92;;;4.78;;
22250;SDS011;59348;52.158;5.588;2022-12-24T14:43:45;25.85;;;4.70;;
22250;SDS011;59348;52.158;5.588;2022-12-24T14:46:16;24.05;;;4.68;;
22250;SDS011;59348;52.158;5.588;2022-12-24T14:48:50;32.33;;;4.95;;
22250;SDS011;59348;52.158;5.588;2022-12-24T14:51:19;26.80;;;5.53;;
22250;SDS011;59348;52.158;5.588;2022-12-24T14:53:57;28.15;;;5.07;;